aviador You're here:

PAOO Decoded Metar

TOKSOOK BAY in AK, USA
Report Time2017-09-21 13:56:00
UTC Time2017-09-21 14:06:49
Flight Rules mvfr MVFR
Wind340° at 15 kt
W.Decomp.*RWY 34: 14.7 kt HW 3.1 kt LCW
W.Rank340° ranks 3
Current wind is above 340° avg. (14.3)
Visibility9999 m
Phenomena:N/A
Clouds:Few 008 Hf
Overcast 013 Hf
Expected CloudBase > 800 ft AGL from Temp-Dew spread
Ceiling1,300 ft
Temp06°C (ISA -9)
Dew Point04°C (87% RH)
AAT-0.7°C
QNH1013 hPa
Density Alt-902 ft
Elevation59 ft
Report Wrong Elevation
Raw Report
PAOO 211356Z AUTO 34015KT 10SM FEW008 OVC013 06/04 A2990 RMK AO2
RAB28E44 SLP137 P0000 T00560039=

Extra information for PAOO:More info

Metar Taf Metar & Taf Last 4 Metars F.Rules Stats Wind Profile Meteogram Temp Stats Airport Information Weather charts Add Link Nearby VenuesMetar ALERT Operation Metar Decoded Social comments

AIRNAV info for PAOO